sensor_id;sensor_type;location;lat;lon;timestamp;temperature;humidity
212;DHT22;16228;48.800;9.002;2022-09-01T00:01:10;14.70;96.90
212;DHT22;16228;48.800;9.002;2022-09-01T00:03:39;14.60;96.90
212;DHT22;16228;48.800;9.002;2022-09-01T00:06:07;14.50;96.90
212;DHT22;16228;48.800;9.002;2022-09-01T00:08:35;14.50;96.90
212;DHT22;16228;48.800;9.002;2022-09-01T00:11:03;14.50;96.90
212;DHT22;16228;48.800;9.002;2022-09-01T00:13:30;14.50;96.90
212;DHT22;16228;48.800;9.002;2022-09-01T00:15:59;14.50;96.90
212;DHT22;16228;48.800;9.002;2022-09-01T00:18:29;14.50;96.90
212;DHT22;16228;48.800;9.002;2022-09-01T00:20:57;14.50;96.90
212;DHT22;16228;48.800;9.002;2022-09-01T00:23:25;14.50;96.90
212;DHT22;16228;48.800;9.002;2022-09-01T00:25:52;14.50;96.90
212;DHT22;16228;48.800;9.002;2022-09-01T00:28:21;14.50;96.90
212;DHT22;16228;48.800;9.002;2022-09-01T00:30:48;14.40;96.90
212;DHT22;16228;48.800;9.002;2022-09-01T00:33:15;14.40;96.90
212;DHT22;16228;48.800;9.002;2022-09-01T00:35:42;14.40;96.90
212;DHT22;16228;48.800;9.002;2022-09-01T00:38:09;14.30;96.90
212;DHT22;16228;48.800;9.002;2022-09-01T00:40:36;14.30;96.90
212;DHT22;16228;48.800;9.002;2022-09-01T00:43:11;14.30;96.90
212;DHT22;16228;48.800;9.002;2022-09-01T00:45:40;14.30;96.90
212;DHT22;16228;48.800;9.002;2022-09-01T00:48:08;14.20;96.90
212;DHT22;16228;48.800;9.002;2022-09-01T00:50:36;14.20;96.90
212;DHT22;16228;48.800;9.002;2022-09-01T00:53:04;14.20;96.90
212;DHT22;16228;48.800;9.002;2022-09-01T00:55:34;14.10;96.90
212;DHT22;16228;48.800;9.002;2022-09-01T00:58:04;14.10;96.90
212;DHT22;16228;48.800;9.002;2022-09-01T01:00:35;14.10;96.90
212;DHT22;16228;48.800;9.002;2022-09-01T01:03:07;14.10;96.90
212;DHT22;16228;48.800;9.002;2022-09-01T01:05:37;14.10;96.90
212;DHT22;16228;48.800;9.002;2022-09-01T01:08:06;14.00;96.90
212;DHT22;16228;48.800;9.002;2022-09-01T01:10:37;14.00;96.90
212;DHT22;16228;48.800;9.002;2022-09-01T01:13:07;14.00;96.90
212;DHT22;16228;48.800;9.002;2022-09-01T01:15:34;14.00;96.90
212;DHT22;16228;48.800;9.002;2022-09-01T01:18:02;14.00;96.90
212;DHT22;16228;48.800;9.002;2022-09-01T01:20:32;14.00;96.90
212;DHT22;16228;48.800;9.002;2022-09-01T01:23:24;14.00;96.90
212;DHT22;16228;48.800;9.002;2022-09-01T01:25:58;13.90;96.90
212;DHT22;16228;48.800;9.002;2022-09-01T01:28:28;13.90;96.90
212;DHT22;16228;48.800;9.002;2022-09-01T01:30:58;13.90;96.90
212;DHT22;16228;48.800;9.002;2022-09-01T01:33:33;13.90;96.90
212;DHT22;16228;48.800;9.002;2022-09-01T01:36:07;13.90;96.90
212;DHT22;16228;48.800;9.002;2022-09-01T01:38:37;13.90;96.90
212;DHT22;16228;48.800;9.002;2022-09-01T01:41:09;13.90;96.90
212;DHT22;16228;48.800;9.002;2022-09-01T01:43:36;13.80;96.90
212;DHT22;16228;48.800;9.002;2022-09-01T01:46:08;13.80;96.90
212;DHT22;16228;48.800;9.002;2022-09-01T01:48:38;13.70;96.90
212;DHT22;16228;48.800;9.002;2022-09-01T01:51:07;13.70;96.90
212;DHT22;16228;48.800;9.002;2022-09-01T01:53:35;13.70;96.90
212;DHT22;16228;48.800;9.002;2022-09-01T01:56:03;13.60;96.90
212;DHT22;16228;48.800;9.002;2022-09-01T01:58:32;13.60;96.90
212;DHT22;16228;48.800;9.002;2022-09-01T02:01:00;13.60;96.90
212;DHT22;16228;48.800;9.002;2022-09-01T02:03:33;13.50;96.90
212;DHT22;16228;48.800;9.002;2022-09-01T02:06:05;13.60;96.90
212;DHT22;16228;48.800;9.002;2022-09-01T02:08:35;13.50;96.90
212;DHT22;16228;48.800;9.002;2022-09-01T02:11:03;13.50;96.90
212;DHT22;16228;48.800;9.002;2022-09-01T02:13:32;13.40;96.90
212;DHT22;16228;48.800;9.002;2022-09-01T02:16:02;13.40;96.90
212;DHT22;16228;48.800;9.002;2022-09-01T02:18:33;13.40;96.90
212;DHT22;16228;48.800;9.002;2022-09-01T02:21:01;13.40;96.90
212;DHT22;16228;48.800;9.002;2022-09-01T02:23:28;13.40;96.90
212;DHT22;16228;48.800;9.002;2022-09-01T02:25:58;13.30;96.90
212;DHT22;16228;48.800;9.002;2022-09-01T02:28:28;13.30;96.90
212;DHT22;16228;48.800;9.002;2022-09-01T02:30:59;13.30;96.90
212;DHT22;16228;48.800;9.002;2022-09-01T02:33:28;13.30;96.90
212;DHT22;16228;48.800;9.002;2022-09-01T02:35:58;13.30;96.90
212;DHT22;16228;48.800;9.002;2022-09-01T02:38:26;13.20;96.90
212;DHT22;16228;48.800;9.002;2022-09-01T02:40:55;13.20;96.90
212;DHT22;16228;48.800;9.002;2022-09-01T02:43:24;13.20;96.90
212;DHT22;16228;48.800;9.002;2022-09-01T02:45:55;13.20;96.90
212;DHT22;16228;48.800;9.002;2022-09-01T02:48:27;13.20;96.90
212;DHT22;16228;48.800;9.002;2022-09-01T02:51:01;13.20;96.90
212;DHT22;16228;48.800;9.002;2022-09-01T02:53:28;13.20;96.90
212;DHT22;16228;48.800;9.002;2022-09-01T02:55:56;13.20;96.90
212;DHT22;16228;48.800;9.002;2022-09-01T02:58:24;13.10;96.90
212;DHT22;16228;48.800;9.002;2022-09-01T03:00:52;13.10;96.90
212;DHT22;16228;48.800;9.002;2022-09-01T03:03:19;13.10;96.90
212;DHT22;16228;48.800;9.002;2022-09-01T03:05:50;13.10;96.90
212;DHT22;16228;48.800;9.002;2022-09-01T03:08:20;13.00;96.90
212;DHT22;16228;48.800;9.002;2022-09-01T03:10:48;13.00;96.90
212;DHT22;16228;48.800;9.002;2022-09-01T03:13:18;13.00;96.90
212;DHT22;16228;48.800;9.002;2022-09-01T03:15:46;12.90;96.90
212;DHT22;16228;48.800;9.002;2022-09-01T03:18:15;13.00;96.90
212;DHT22;16228;48.800;9.002;2022-09-01T03:20:44;13.00;96.90
212;DHT22;16228;48.800;9.002;2022-09-01T03:23:14;12.90;96.90
212;DHT22;16228;48.800;9.002;2022-09-01T03:25:44;12.90;96.90
212;DHT22;16228;48.800;9.002;2022-09-01T03:28:12;12.90;96.90
212;DHT22;16228;48.800;9.002;2022-09-01T03:30:45;12.90;96.90
212;DHT22;16228;48.800;9.002;2022-09-01T03:33:12;12.80;96.90
212;DHT22;16228;48.800;9.002;2022-09-01T03:35:39;12.80;96.90
212;DHT22;16228;48.800;9.002;2022-09-01T03:38:06;12.80;96.90
212;DHT22;16228;48.800;9.002;2022-09-01T03:40:35;12.70;96.90
212;DHT22;16228;48.800;9.002;2022-09-01T03:43:04;12.80;96.90
212;DHT22;16228;48.800;9.002;2022-09-01T03:45:34;12.80;96.90
212;DHT22;16228;48.800;9.002;2022-09-01T03:48:04;12.80;96.90
212;DHT22;16228;48.800;9.002;2022-09-01T03:50:35;12.70;96.90
212;DHT22;16228;48.800;9.002;2022-09-01T03:53:06;12.70;96.90
212;DHT22;16228;48.800;9.002;2022-09-01T03:55:35;12.70;96.90
212;DHT22;16228;48.800;9.002;2022-09-01T03:58:05;12.70;96.90
212;DHT22;16228;48.800;9.002;2022-09-01T04:00:34;12.70;96.90
212;DHT22;16228;48.800;9.002;2022-09-01T04:03:03;12.70;96.90
212;DHT22;16228;48.800;9.002;2022-09-01T04:05:31;12.70;96.90
212;DHT22;16228;48.800;9.002;2022-09-01T04:08:00;12.80;96.90
212;DHT22;16228;48.800;9.002;2022-09-01T04:10:29;12.70;96.90
212;DHT22;16228;48.800;9.002;2022-09-01T04:12:59;12.60;96.90
212;DHT22;16228;48.800;9.002;2022-09-01T04:15:27;12.60;96.90
212;DHT22;16228;48.800;9.002;2022-09-01T04:17:54;12.60;96.90
212;DHT22;16228;48.800;9.002;2022-09-01T04:20:38;12.60;96.90
212;DHT22;16228;48.800;9.002;2022-09-01T04:23:18;12.60;96.90
212;DHT22;16228;48.800;9.002;2022-09-01T04:25:53;12.70;96.90
212;DHT22;16228;48.800;9.002;2022-09-01T04:28:24;12.80;96.90
212;DHT22;16228;48.800;9.002;2022-09-01T04:30:53;12.80;96.90
212;DHT22;16228;48.800;9.002;2022-09-01T04:33:23;12.90;96.90
212;DHT22;16228;48.800;9.002;2022-09-01T04:35:51;13.00;96.90
212;DHT22;16228;48.800;9.002;2022-09-01T04:38:20;12.90;96.90
212;DHT22;16228;48.800;9.002;2022-09-01T04:40:47;12.90;96.90
212;DHT22;16228;48.800;9.002;2022-09-01T04:43:15;12.90;96.90
212;DHT22;16228;48.800;9.002;2022-09-01T04:45:45;12.90;96.90
212;DHT22;16228;48.800;9.002;2022-09-01T04:48:13;12.90;96.90
212;DHT22;16228;48.800;9.002;2022-09-01T04:50:40;12.90;96.90
212;DHT22;16228;48.800;9.002;2022-09-01T04:53:07;12.80;96.90
212;DHT22;16228;48.800;9.002;2022-09-01T04:55:38;12.70;96.90
212;DHT22;16228;48.800;9.002;2022-09-01T04:58:08;12.70;96.90
212;DHT22;16228;48.800;9.002;2022-09-01T05:00:39;12.70;96.90
212;DHT22;16228;48.800;9.002;2022-09-01T05:03:07;12.70;96.90
212;DHT22;16228;48.800;9.002;2022-09-01T05:05:37;12.70;96.90
212;DHT22;16228;48.800;9.002;2022-09-01T05:08:09;12.70;96.90
212;DHT22;16228;48.800;9.002;2022-09-01T05:10:39;12.80;96.90
212;DHT22;16228;48.800;9.002;2022-09-01T05:13:07;12.90;96.90
212;DHT22;16228;48.800;9.002;2022-09-01T05:15:37;13.00;96.90
212;DHT22;16228;48.800;9.002;2022-09-01T05:18:13;13.00;96.90
212;DHT22;16228;48.800;9.002;2022-09-01T05:20:41;13.00;96.90
212;DHT22;16228;48.800;9.002;2022-09-01T05:23:10;13.00;96.90
212;DHT22;16228;48.800;9.002;2022-09-01T05:25:40;13.10;96.90
212;DHT22;16228;48.800;9.002;2022-09-01T05:28:09;13.10;96.90
212;DHT22;16228;48.800;9.002;2022-09-01T05:30:37;13.20;96.90
212;DHT22;16228;48.800;9.002;2022-09-01T05:33:06;13.30;96.90
212;DHT22;16228;48.800;9.002;2022-09-01T05:35:39;13.30;96.90
212;DHT22;16228;48.800;9.002;2022-09-01T05:38:11;13.40;96.90
212;DHT22;16228;48.800;9.002;2022-09-01T05:40:40;13.50;96.90
212;DHT22;16228;48.800;9.002;2022-09-01T05:43:10;13.50;96.90
212;DHT22;16228;48.800;9.002;2022-09-01T05:45:38;13.60;96.90
212;DHT22;16228;48.800;9.002;2022-09-01T05:48:09;13.70;96.90
212;DHT22;16228;48.800;9.002;2022-09-01T05:50:40;13.80;96.90
212;DHT22;16228;48.800;9.002;2022-09-01T05:53:08;13.80;96.90
212;DHT22;16228;48.800;9.002;2022-09-01T05:55:41;13.90;96.90
212;DHT22;16228;48.800;9.002;2022-09-01T05:58:10;14.00;96.90
212;DHT22;16228;48.800;9.002;2022-09-01T06:00:40;14.00;96.90
212;DHT22;16228;48.800;9.002;2022-09-01T06:03:08;14.10;96.90
212;DHT22;16228;48.800;9.002;2022-09-01T06:05:36;14.20;96.90
212;DHT22;16228;48.800;9.002;2022-09-01T06:08:06;14.30;96.90
212;DHT22;16228;48.800;9.002;2022-09-01T06:10:37;14.30;96.90
212;DHT22;16228;48.800;9.002;2022-09-01T06:13:05;14.50;96.90
212;DHT22;16228;48.800;9.002;2022-09-01T06:15:32;14.60;96.90
212;DHT22;16228;48.800;9.002;2022-09-01T06:18:01;14.80;96.90
212;DHT22;16228;48.800;9.002;2022-09-01T06:20:30;15.00;96.90
212;DHT22;16228;48.800;9.002;2022-09-01T06:22:57;15.10;96.90
212;DHT22;16228;48.800;9.002;2022-09-01T06:25:25;15.30;96.90
212;DHT22;16228;48.800;9.002;2022-09-01T06:27:55;15.40;96.90
212;DHT22;16228;48.800;9.002;2022-09-01T06:30:22;15.60;96.90
212;DHT22;16228;48.800;9.002;2022-09-01T06:32:51;15.90;96.90
212;DHT22;16228;48.800;9.002;2022-09-01T06:35:19;16.20;96.90
212;DHT22;16228;48.800;9.002;2022-09-01T06:37:46;16.50;96.90
212;DHT22;16228;48.800;9.002;2022-09-01T06:40:15;16.90;96.90
212;DHT22;16228;48.800;9.002;2022-09-01T06:42:45;17.20;96.90
212;DHT22;16228;48.800;9.002;2022-09-01T06:45:14;17.50;96.90
212;DHT22;16228;48.800;9.002;2022-09-01T06:47:43;17.70;96.90
212;DHT22;16228;48.800;9.002;2022-09-01T06:50:12;17.90;96.90
212;DHT22;16228;48.800;9.002;2022-09-01T06:52:40;18.10;96.90
212;DHT22;16228;48.800;9.002;2022-09-01T06:55:08;18.30;96.90
212;DHT22;16228;48.800;9.002;2022-09-01T06:57:36;18.30;96.90
212;DHT22;16228;48.800;9.002;2022-09-01T07:00:08;18.40;96.90
212;DHT22;16228;48.800;9.002;2022-09-01T07:02:43;18.50;96.90
212;DHT22;16228;48.800;9.002;2022-09-01T07:05:11;18.60;96.90
212;DHT22;16228;48.800;9.002;2022-09-01T07:07:45;18.70;96.90
212;DHT22;16228;48.800;9.002;2022-09-01T07:10:17;18.80;96.90
212;DHT22;16228;48.800;9.002;2022-09-01T07:12:47;18.80;96.90
212;DHT22;16228;48.800;9.002;2022-09-01T07:15:16;18.90;96.90
212;DHT22;16228;48.800;9.002;2022-09-01T07:17:46;19.10;96.90
212;DHT22;16228;48.800;9.002;2022-09-01T07:20:15;19.30;96.90
212;DHT22;16228;48.800;9.002;2022-09-01T07:22:42;19.40;96.90
212;DHT22;16228;48.800;9.002;2022-09-01T07:25:10;19.50;96.90
212;DHT22;16228;48.800;9.002;2022-09-01T07:27:38;19.60;96.90
212;DHT22;16228;48.800;9.002;2022-09-01T07:30:07;19.90;96.90
212;DHT22;16228;48.800;9.002;2022-09-01T07:32:37;20.10;96.90
212;DHT22;16228;48.800;9.002;2022-09-01T07:35:08;20.20;96.90
212;DHT22;16228;48.800;9.002;2022-09-01T07:37:35;20.30;96.90
212;DHT22;16228;48.800;9.002;2022-09-01T07:40:05;20.30;96.90
212;DHT22;16228;48.800;9.002;2022-09-01T07:42:32;20.20;96.90
212;DHT22;16228;48.800;9.002;2022-09-01T07:44:59;20.10;96.90
212;DHT22;16228;48.800;9.002;2022-09-01T07:47:31;20.00;96.90
212;DHT22;16228;48.800;9.002;2022-09-01T07:50:03;20.20;96.90
212;DHT22;16228;48.800;9.002;2022-09-01T07:52:33;20.30;96.90
212;DHT22;16228;48.800;9.002;2022-09-01T07:55:01;20.40;96.90
212;DHT22;16228;48.800;9.002;2022-09-01T07:57:28;20.30;96.90
212;DHT22;16228;48.800;9.002;2022-09-01T07:59:56;20.20;96.90
212;DHT22;16228;48.800;9.002;2022-09-01T08:02:23;20.30;96.90
212;DHT22;16228;48.800;9.002;2022-09-01T08:04:52;20.40;96.90
212;DHT22;16228;48.800;9.002;2022-09-01T08:07:21;20.50;96.90
212;DHT22;16228;48.800;9.002;2022-09-01T08:09:48;20.80;96.90
212;DHT22;16228;48.800;9.002;2022-09-01T08:12:15;21.20;96.90
212;DHT22;16228;48.800;9.002;2022-09-01T08:14:42;21.50;96.90
212;DHT22;16228;48.800;9.002;2022-09-01T08:17:10;21.60;96.90
212;DHT22;16228;48.800;9.002;2022-09-01T08:19:37;21.60;96.90
212;DHT22;16228;48.800;9.002;2022-09-01T08:22:04;21.50;96.90
212;DHT22;16228;48.800;9.002;2022-09-01T08:24:32;21.40;96.90
212;DHT22;16228;48.800;9.002;2022-09-01T08:26:59;21.40;96.90
212;DHT22;16228;48.800;9.002;2022-09-01T08:29:26;21.40;96.90
212;DHT22;16228;48.800;9.002;2022-09-01T08:31:53;21.40;96.90
212;DHT22;16228;48.800;9.002;2022-09-01T08:34:20;21.40;96.90
212;DHT22;16228;48.800;9.002;2022-09-01T08:36:47;21.40;96.90
212;DHT22;16228;48.800;9.002;2022-09-01T08:39:14;21.40;96.90
212;DHT22;16228;48.800;9.002;2022-09-01T08:41:46;21.30;96.90
212;DHT22;16228;48.800;9.002;2022-09-01T08:44:27;21.50;96.90
212;DHT22;16228;48.800;9.002;2022-09-01T08:46:59;21.90;96.90
212;DHT22;16228;48.800;9.002;2022-09-01T08:49:27;22.10;96.90
212;DHT22;16228;48.800;9.002;2022-09-01T08:51:58;22.10;96.90
212;DHT22;16228;48.800;9.002;2022-09-01T08:54:33;22.00;96.90
212;DHT22;16228;48.800;9.002;2022-09-01T08:57:05;21.70;96.90
212;DHT22;16228;48.800;9.002;2022-09-01T08:59:32;21.60;96.90
212;DHT22;16228;48.800;9.002;2022-09-01T09:02:11;21.50;96.90
212;DHT22;16228;48.800;9.002;2022-09-01T09:04:50;21.40;96.90
212;DHT22;16228;48.800;9.002;2022-09-01T09:07:26;21.50;96.90
212;DHT22;16228;48.800;9.002;2022-09-01T09:10:03;21.70;96.90
212;DHT22;16228;48.800;9.002;2022-09-01T09:12:43;21.90;96.90
212;DHT22;16228;48.800;9.002;2022-09-01T09:15:21;22.30;96.90
212;DHT22;16228;48.800;9.002;2022-09-01T09:17:55;22.60;96.90
212;DHT22;16228;48.800;9.002;2022-09-01T09:20:25;22.90;96.90
212;DHT22;16228;48.800;9.002;2022-09-01T09:22:52;23.30;96.90
212;DHT22;16228;48.800;9.002;2022-09-01T09:25:21;23.30;96.90
212;DHT22;16228;48.800;9.002;2022-09-01T09:27:50;23.20;96.90
212;DHT22;16228;48.800;9.002;2022-09-01T09:30:20;22.90;96.90
212;DHT22;16228;48.800;9.002;2022-09-01T09:32:50;22.70;96.90
212;DHT22;16228;48.800;9.002;2022-09-01T09:35:23;22.50;96.90
212;DHT22;16228;48.800;9.002;2022-09-01T09:37:51;22.10;96.90
212;DHT22;16228;48.800;9.002;2022-09-01T09:40:20;21.90;96.90
212;DHT22;16228;48.800;9.002;2022-09-01T09:43:05;21.90;96.90
212;DHT22;16228;48.800;9.002;2022-09-01T09:45:35;21.90;96.90
212;DHT22;16228;48.800;9.002;2022-09-01T09:48:08;21.80;96.90
212;DHT22;16228;48.800;9.002;2022-09-01T09:50:38;22.10;96.90
212;DHT22;16228;48.800;9.002;2022-09-01T09:53:17;22.40;96.90
212;DHT22;16228;48.800;9.002;2022-09-01T09:56:00;22.90;96.90
212;DHT22;16228;48.800;9.002;2022-09-01T09:58:40;23.50;96.90
212;DHT22;16228;48.800;9.002;2022-09-01T10:01:11;25.20;96.90
212;DHT22;16228;48.800;9.002;2022-09-01T10:03:43;27.00;95.60
212;DHT22;16228;48.800;9.002;2022-09-01T10:06:28;28.20;92.00
212;DHT22;16228;48.800;9.002;2022-09-01T10:08:56;29.20;88.40
212;DHT22;16228;48.800;9.002;2022-09-01T10:11:27;29.20;85.50
212;DHT22;16228;48.800;9.002;2022-09-01T10:13:56;28.50;86.50
212;DHT22;16228;48.800;9.002;2022-09-01T10:16:26;27.50;88.60
212;DHT22;16228;48.800;9.002;2022-09-01T10:18:57;26.70;88.90
212;DHT22;16228;48.800;9.002;2022-09-01T10:21:31;26.40;91.50
212;DHT22;16228;48.800;9.002;2022-09-01T10:23:59;26.50;94.40
212;DHT22;16228;48.800;9.002;2022-09-01T10:26:30;26.70;91.30
212;DHT22;16228;48.800;9.002;2022-09-01T10:29:05;27.40;91.60
212;DHT22;16228;48.800;9.002;2022-09-01T10:31:34;28.00;88.10
212;DHT22;16228;48.800;9.002;2022-09-01T10:34:04;28.10;84.50
212;DHT22;16228;48.800;9.002;2022-09-01T10:36:32;27.80;86.20
212;DHT22;16228;48.800;9.002;2022-09-01T10:39:01;27.10;87.60
212;DHT22;16228;48.800;9.002;2022-09-01T10:41:46;26.40;88.40
212;DHT22;16228;48.800;9.002;2022-09-01T10:44:21;25.70;90.60
212;DHT22;16228;48.800;9.002;2022-09-01T10:46:50;25.30;91.80
212;DHT22;16228;48.800;9.002;2022-09-01T10:52:57;24.80;95.50
212;DHT22;16228;48.800;9.002;2022-09-01T10:55:37;25.40;96.90
212;DHT22;16228;48.800;9.002;2022-09-01T10:58:42;27.00;92.50
212;DHT22;16228;48.800;9.002;2022-09-01T11:01:12;28.50;89.20
212;DHT22;16228;48.800;9.002;2022-09-01T11:03:52;28.70;86.40
212;DHT22;16228;48.800;9.002;2022-09-01T11:06:44;28.30;86.60
212;DHT22;16228;48.800;9.002;2022-09-01T11:09:21;27.80;87.80
212;DHT22;16228;48.800;9.002;2022-09-01T11:12:17;27.00;88.40
212;DHT22;16228;48.800;9.002;2022-09-01T11:14:48;25.90;88.40
212;DHT22;16228;48.800;9.002;2022-09-01T11:17:20;25.30;92.30
212;DHT22;16228;48.800;9.002;2022-09-01T11:19:58;24.60;91.00
212;DHT22;16228;48.800;9.002;2022-09-01T11:22:33;25.00;95.10
212;DHT22;16228;48.800;9.002;2022-09-01T11:25:13;25.60;93.10
212;DHT22;16228;48.800;9.002;2022-09-01T11:28:01;27.10;87.50
212;DHT22;16228;48.800;9.002;2022-09-01T11:30:43;27.60;85.00
212;DHT22;16228;48.800;9.002;2022-09-01T11:36:26;26.20;86.60
212;DHT22;16228;48.800;9.002;2022-09-01T11:39:01;25.20;91.60
212;DHT22;16228;48.800;9.002;2022-09-01T11:41:32;24.50;92.80
212;DHT22;16228;48.800;9.002;2022-09-01T11:44:01;24.00;91.50
212;DHT22;16228;48.800;9.002;2022-09-01T11:46:32;23.70;92.80
212;DHT22;16228;48.800;9.002;2022-09-01T11:49:04;23.50;95.90
212;DHT22;16228;48.800;9.002;2022-09-01T11:51:43;23.30;94.60
212;DHT22;16228;48.800;9.002;2022-09-01T11:54:10;23.40;96.90
212;DHT22;16228;48.800;9.002;2022-09-01T11:56:37;23.70;96.90
212;DHT22;16228;48.800;9.002;2022-09-01T11:59:04;23.90;96.90
212;DHT22;16228;48.800;9.002;2022-09-01T12:01:34;23.90;95.60
212;DHT22;16228;48.800;9.002;2022-09-01T12:04:23;23.80;94.70
212;DHT22;16228;48.800;9.002;2022-09-01T12:06:54;23.70;95.60
212;DHT22;16228;48.800;9.002;2022-09-01T12:09:31;23.70;96.90
212;DHT22;16228;48.800;9.002;2022-09-01T12:11:58;23.80;96.90
212;DHT22;16228;48.800;9.002;2022-09-01T12:14:25;24.00;96.90
212;DHT22;16228;48.800;9.002;2022-09-01T12:17:01;24.60;96.90
212;DHT22;16228;48.800;9.002;2022-09-01T12:19:31;26.00;93.30
212;DHT22;16228;48.800;9.002;2022-09-01T12:22:01;28.10;85.90
212;DHT22;16228;48.800;9.002;2022-09-01T12:24:32;30.00;79.00
212;DHT22;16228;48.800;9.002;2022-09-01T12:27:00;31.70;79.10
212;DHT22;16228;48.800;9.002;2022-09-01T12:29:28;33.00;78.00
212;DHT22;16228;48.800;9.002;2022-09-01T12:31:56;34.10;72.30
212;DHT22;16228;48.800;9.002;2022-09-01T12:34:35;34.50;67.90
212;DHT22;16228;48.800;9.002;2022-09-01T12:37:08;35.20;72.20
212;DHT22;16228;48.800;9.002;2022-09-01T12:39:37;35.70;65.40
212;DHT22;16228;48.800;9.002;2022-09-01T12:42:11;34.90;67.90
212;DHT22;16228;48.800;9.002;2022-09-01T12:44:45;33.00;70.30
212;DHT22;16228;48.800;9.002;2022-09-01T12:50:06;30.00;76.60
212;DHT22;16228;48.800;9.002;2022-09-01T12:52:41;28.60;78.70
212;DHT22;16228;48.800;9.002;2022-09-01T12:55:16;27.70;82.60
212;DHT22;16228;48.800;9.002;2022-09-01T12:57:47;26.90;84.80
212;DHT22;16228;48.800;9.002;2022-09-01T13:00:18;26.10;84.30
212;DHT22;16228;48.800;9.002;2022-09-01T13:02:47;25.40;88.40
212;DHT22;16228;48.800;9.002;2022-09-01T13:05:25;25.00;88.90
212;DHT22;16228;48.800;9.002;2022-09-01T13:07:53;24.60;88.90
212;DHT22;16228;48.800;9.002;2022-09-01T13:10:21;24.40;94.40
212;DHT22;16228;48.800;9.002;2022-09-01T13:12:49;24.30;96.60
212;DHT22;16228;48.800;9.002;2022-09-01T13:15:17;24.40;96.90
212;DHT22;16228;48.800;9.002;2022-09-01T13:17:45;24.70;91.90
212;DHT22;16228;48.800;9.002;2022-09-01T13:20:12;25.10;89.90
212;DHT22;16228;48.800;9.002;2022-09-01T13:22:40;25.50;92.90
212;DHT22;16228;48.800;9.002;2022-09-01T13:25:09;26.00;91.60
212;DHT22;16228;48.800;9.002;2022-09-01T13:27:38;26.10;87.80
212;DHT22;16228;48.800;9.002;2022-09-01T13:30:11;25.60;87.00
212;DHT22;16228;48.800;9.002;2022-09-01T13:32:40;24.90;85.40
212;DHT22;16228;48.800;9.002;2022-09-01T13:35:08;24.50;89.10
212;DHT22;16228;48.800;9.002;2022-09-01T13:37:35;24.20;90.50
212;DHT22;16228;48.800;9.002;2022-09-01T13:40:05;23.90;90.80
212;DHT22;16228;48.800;9.002;2022-09-01T13:42:33;23.50;91.50
212;DHT22;16228;48.800;9.002;2022-09-01T13:45:00;23.40;93.30
212;DHT22;16228;48.800;9.002;2022-09-01T13:47:27;23.30;93.90
212;DHT22;16228;48.800;9.002;2022-09-01T13:49:54;23.30;93.50
212;DHT22;16228;48.800;9.002;2022-09-01T13:54:49;23.30;96.70
212;DHT22;16228;48.800;9.002;2022-09-01T13:57:17;23.50;96.90
212;DHT22;16228;48.800;9.002;2022-09-01T13:59:44;23.60;96.90
212;DHT22;16228;48.800;9.002;2022-09-01T14:02:11;23.80;96.90
212;DHT22;16228;48.800;9.002;2022-09-01T14:04:38;23.90;93.70
212;DHT22;16228;48.800;9.002;2022-09-01T14:07:05;24.10;94.70
212;DHT22;16228;48.800;9.002;2022-09-01T14:09:33;24.20;91.10
212;DHT22;16228;48.800;9.002;2022-09-01T14:12:00;24.30;91.70
212;DHT22;16228;48.800;9.002;2022-09-01T14:14:29;24.40;90.80
212;DHT22;16228;48.800;9.002;2022-09-01T14:16:56;24.20;89.40
212;DHT22;16228;48.800;9.002;2022-09-01T14:19:23;24.10;88.70
212;DHT22;16228;48.800;9.002;2022-09-01T14:21:50;24.20;91.40
212;DHT22;16228;48.800;9.002;2022-09-01T14:24:17;24.30;89.70
212;DHT22;16228;48.800;9.002;2022-09-01T14:26:45;24.40;89.80
212;DHT22;16228;48.800;9.002;2022-09-01T14:29:12;24.70;89.90
212;DHT22;16228;48.800;9.002;2022-09-01T14:31:41;24.60;88.40
212;DHT22;16228;48.800;9.002;2022-09-01T14:34:09;24.70;92.40
212;DHT22;16228;48.800;9.002;2022-09-01T14:36:37;24.50;88.90
212;DHT22;16228;48.800;9.002;2022-09-01T14:39:04;24.30;88.20
212;DHT22;16228;48.800;9.002;2022-09-01T14:41:32;24.00;88.40
212;DHT22;16228;48.800;9.002;2022-09-01T14:43:59;23.60;90.90
212;DHT22;16228;48.800;9.002;2022-09-01T14:46:27;23.40;90.80
212;DHT22;16228;48.800;9.002;2022-09-01T14:48:56;23.30;91.60
212;DHT22;16228;48.800;9.002;2022-09-01T14:51:25;23.10;93.10
212;DHT22;16228;48.800;9.002;2022-09-01T14:53:54;23.10;92.40
212;DHT22;16228;48.800;9.002;2022-09-01T14:56:21;23.00;91.20
212;DHT22;16228;48.800;9.002;2022-09-01T14:58:49;23.10;91.80
212;DHT22;16228;48.800;9.002;2022-09-01T15:01:17;23.10;93.20
212;DHT22;16228;48.800;9.002;2022-09-01T15:03:46;23.20;93.00
212;DHT22;16228;48.800;9.002;2022-09-01T15:06:16;23.20;91.10
212;DHT22;16228;48.800;9.002;2022-09-01T15:08:43;23.20;92.40
212;DHT22;16228;48.800;9.002;2022-09-01T15:11:11;23.30;92.60
212;DHT22;16228;48.800;9.002;2022-09-01T15:13:39;23.40;91.80
212;DHT22;16228;48.800;9.002;2022-09-01T15:16:12;23.40;93.40
212;DHT22;16228;48.800;9.002;2022-09-01T15:18:41;23.30;92.10
212;DHT22;16228;48.800;9.002;2022-09-01T15:21:19;23.30;95.00
212;DHT22;16228;48.800;9.002;2022-09-01T15:23:46;23.30;92.90
212;DHT22;16228;48.800;9.002;2022-09-01T15:26:14;23.20;92.20
212;DHT22;16228;48.800;9.002;2022-09-01T15:28:42;23.10;93.10
212;DHT22;16228;48.800;9.002;2022-09-01T15:31:09;23.00;92.80
212;DHT22;16228;48.800;9.002;2022-09-01T15:33:37;22.90;91.30
212;DHT22;16228;48.800;9.002;2022-09-01T15:36:05;22.90;90.90
212;DHT22;16228;48.800;9.002;2022-09-01T15:38:34;22.90;92.10
212;DHT22;16228;48.800;9.002;2022-09-01T15:41:01;22.80;91.20
212;DHT22;16228;48.800;9.002;2022-09-01T15:43:28;22.90;90.50
212;DHT22;16228;48.800;9.002;2022-09-01T15:45:57;22.90;90.60
212;DHT22;16228;48.800;9.002;2022-09-01T15:48:24;22.90;90.50
212;DHT22;16228;48.800;9.002;2022-09-01T15:50:51;22.70;90.00
212;DHT22;16228;48.800;9.002;2022-09-01T15:53:19;22.60;92.00
212;DHT22;16228;48.800;9.002;2022-09-01T15:55:47;22.60;93.40
212;DHT22;16228;48.800;9.002;2022-09-01T15:58:16;22.50;91.60
212;DHT22;16228;48.800;9.002;2022-09-01T16:00:44;22.50;92.50
212;DHT22;16228;48.800;9.002;2022-09-01T16:03:11;22.50;93.40
212;DHT22;16228;48.800;9.002;2022-09-01T16:05:39;22.40;91.30
212;DHT22;16228;48.800;9.002;2022-09-01T16:08:07;22.40;91.50
212;DHT22;16228;48.800;9.002;2022-09-01T16:10:38;22.20;91.30
212;DHT22;16228;48.800;9.002;2022-09-01T16:13:08;22.20;91.30
212;DHT22;16228;48.800;9.002;2022-09-01T16:15:42;22.10;91.50
212;DHT22;16228;48.800;9.002;2022-09-01T16:18:19;22.10;92.30
212;DHT22;16228;48.800;9.002;2022-09-01T16:20:54;22.00;91.50
212;DHT22;16228;48.800;9.002;2022-09-01T16:23:31;22.10;92.60
212;DHT22;16228;48.800;9.002;2022-09-01T16:25:59;22.10;94.00
212;DHT22;16228;48.800;9.002;2022-09-01T16:28:30;22.10;92.80
212;DHT22;16228;48.800;9.002;2022-09-01T16:31:03;22.10;93.40
212;DHT22;16228;48.800;9.002;2022-09-01T16:33:32;22.00;95.00